Time;durP1;ratioP1;P1;durP2;ratioP2;P2;SDS_P1;SDS_P2;PMS_P1;PMS_P2;Temp;Humidity;BMP_temperature;BMP_pressure;BME280_temperature;BME280_humidity;BME280_pressure;Samples;Min_cycle;Max_cycle;Signal;HPM_P1;HPM_P2
2022/06/30 00:00:14;;;;;;;15.63;14.23;;;;;;;;;;5035879;28;20021;-66
2022/06/30 00:02:39;;;;;;;15.68;14.18;;;;;;;;;;5036044;28;20127;-66
2022/06/30 00:05:05;;;;;;;15.88;14.38;;;;;;;;;;5035730;28;20056;-66
2022/06/30 00:07:30;;;;;;;15.15;13.85;;;;;;;;;;5035881;28;20061;-65
2022/06/30 00:09:56;;;;;;;17.20;14.65;;;;;;;;;;5035819;28;20104;-66
2022/06/30 00:12:21;;;;;;;15.82;14.32;;;;;;;;;;5035608;28;20029;-65
2022/06/30 00:14:46;;;;;;;21.08;15.95;;;;;;;;;;5035968;28;20534;-65
2022/06/30 00:17:12;;;;;;;16.60;14.95;;;;;;;;;;5050877;28;20503;-65
2022/06/30 00:19:37;;;;;;;16.63;15.13;;;;;;;;;;5035510;28;20021;-66
2022/06/30 00:22:06;;;;;;;17.77;15.88;;;;;;;;;;5035148;28;20037;-66
2022/06/30 00:24:32;;;;;;;16.98;15.27;;;;;;;;;;5034064;28;20036;-66
2022/06/30 00:26:57;;;;;;;18.52;15.88;;;;;;;;;;5035291;28;20025;-65
2022/06/30 00:29:23;;;;;;;15.55;14.15;;;;;;;;;;5035545;28;20029;-66
2022/06/30 00:31:48;;;;;;;15.88;14.38;;;;;;;;;;5035677;28;20030;-66
2022/06/30 00:34:14;;;;;;;16.15;14.65;;;;;;;;;;5035105;28;20018;-66
2022/06/30 00:36:40;;;;;;;15.32;13.98;;;;;;;;;;5035387;28;20108;-66
2022/06/30 00:39:05;;;;;;;15.63;14.23;;;;;;;;;;5035282;28;20148;-66
2022/06/30 00:41:31;;;;;;;16.05;14.50;;;;;;;;;;5035616;28;20393;-65
2022/06/30 00:43:56;;;;;;;14.73;13.18;;;;;;;;;;5034950;28;20531;-66
2022/06/30 00:46:23;;;;;;;14.70;13.40;;;;;;;;;;5034744;28;20048;-66
2022/06/30 00:48:48;;;;;;;15.50;14.10;;;;;;;;;;5033603;28;20037;-66
2022/06/30 00:51:14;;;;;;;15.48;13.95;;;;;;;;;;5034933;28;20029;-64
2022/06/30 00:53:40;;;;;;;15.38;13.90;;;;;;;;;;5035364;28;20064;-64
2022/06/30 00:56:07;;;;;;;16.10;14.57;;;;;;;;;;5034727;28;20109;-66
2022/06/30 00:58:37;;;;;;;16.20;14.50;;;;;;;;;;5035318;28;20104;-65
2022/06/30 01:01:04;;;;;;;;;;;;;;;;;;5035343;28;20033;-66
2022/06/30 01:03:33;;;;;;;15.25;13.75;;;;;;;;;;5034714;28;19916;-66
2022/06/30 01:06:00;;;;;;;15.73;14.32;;;;;;;;;;5035114;28;20026;-65
2022/06/30 01:08:26;;;;;;;15.88;14.20;;;;;;;;;;5034676;28;20364;-66
2022/06/30 01:13:35;;;;;;;15.38;13.98;;;;;;;;;;5035107;28;20040;-66
2022/06/30 01:16:01;;;;;;;15.43;13.98;;;;;;;;;;5034549;28;20057;-65
2022/06/30 01:18:26;;;;;;;15.73;14.32;;;;;;;;;;5034425;28;20033;-66
2022/06/30 01:20:52;;;;;;;16.27;14.68;;;;;;;;;;5034785;28;20068;-66
2022/06/30 01:23:18;;;;;;;17.23;15.15;;;;;;;;;;5032961;28;20087;-65
2022/06/30 01:25:45;;;;;;;15.82;14.18;;;;;;;;;;5034467;28;20033;-66
2022/06/30 01:28:11;;;;;;;14.95;13.50;;;;;;;;;;5034269;28;20463;-66
2022/06/30 01:30:36;;;;;;;16.73;15.10;;;;;;;;;;5032799;28;20108;-66
2022/06/30 01:33:01;;;;;;;15.85;14.50;;;;;;;;;;5032492;28;20025;-66
2022/06/30 01:35:27;;;;;;;16.15;14.55;;;;;;;;;;5045023;23;20061;-73
2022/06/30 01:38:25;;;;;;;15.63;14.20;;;;;;;;;;5042650;23;20042;-65
2022/06/30 01:40:50;;;;;;;15.32;13.73;;;;;;;;;;5049647;28;20120;-66
2022/06/30 01:43:15;;;;;;;15.93;14.38;;;;;;;;;;5033917;28;20112;-65
2022/06/30 01:45:42;;;;;;;15.85;14.35;;;;;;;;;;5049319;28;20040;-65
2022/06/30 01:48:08;;;;;;;16.30;14.63;;;;;;;;;;5033865;28;20017;-65
2022/06/30 01:50:33;;;;;;;15.90;14.30;;;;;;;;;;5034054;28;20033;-66
2022/06/30 01:53:00;;;;;;;16.73;15.13;;;;;;;;;;5032970;28;20076;-64
2022/06/30 01:55:26;;;;;;;16.67;15.07;;;;;;;;;;5049591;28;20025;-65
2022/06/30 01:57:52;;;;;;;15.48;14.02;;;;;;;;;;5034235;28;20121;-65
2022/06/30 02:00:19;;;;;;;16.60;15.00;;;;;;;;;;5033994;28;20065;-65
2022/06/30 02:02:44;;;;;;;15.95;14.38;;;;;;;;;;5033657;28;20071;-66
2022/06/30 02:05:10;;;;;;;15.38;13.98;;;;;;;;;;5033907;28;20029;-65
2022/06/30 02:07:36;;;;;;;16.38;14.88;;;;;;;;;;5049333;28;20067;-65
2022/06/30 02:10:06;;;;;;;16.38;14.77;;;;;;;;;;5048904;28;20048;-65
2022/06/30 02:12:47;;;;;;;16.15;14.65;;;;;;;;;;5033905;28;20029;-65
2022/06/30 02:15:18;;;;;;;15.82;14.35;;;;;;;;;;5033801;28;20384;-65
2022/06/30 02:17:44;;;;;;;15.85;14.45;;;;;;;;;;5033598;28;20072;-65
2022/06/30 02:20:10;;;;;;;16.42;14.82;;;;;;;;;;5049558;28;20029;-66
2022/06/30 02:22:36;;;;;;;16.80;15.00;;;;;;;;;;5032255;28;20029;-65
2022/06/30 02:25:02;;;;;;;16.70;15.10;;;;;;;;;;5033850;28;20026;-65
2022/06/30 02:27:27;;;;;;;14.98;13.50;;;;;;;;;;5033501;28;20037;-65
2022/06/30 02:29:53;;;;;;;16.58;15.02;;;;;;;;;;5033604;28;20025;-65
2022/06/30 02:32:19;;;;;;;15.13;13.50;;;;;;;;;;5033393;28;20168;-65
2022/06/30 02:34:44;;;;;;;16.42;14.93;;;;;;;;;;5033936;28;20018;-66
2022/06/30 02:37:10;;;;;;;15.07;13.57;;;;;;;;;;5033176;28;20032;-66
2022/06/30 02:39:35;;;;;;;15.90;14.30;;;;;;;;;;5048781;28;20111;-65
2022/06/30 02:42:01;;;;;;;14.93;13.55;;;;;;;;;;5033560;28;20029;-64
2022/06/30 02:44:26;;;;;;;16.10;14.43;;;;;;;;;;5036120;28;20100;-65
2022/06/30 02:46:54;;;;;;;15.93;14.52;;;;;;;;;;5035939;28;20033;-64
2022/06/30 02:49:20;;;;;;;15.52;13.93;;;;;;;;;;5037121;28;20033;-65
2022/06/30 02:51:45;;;;;;;20.25;14.50;;;;;;;;;;5037368;28;20028;-65
2022/06/30 02:54:11;;;;;;;15.10;13.65;;;;;;;;;;5037089;28;20411;-65
2022/06/30 02:56:36;;;;;;;14.70;13.07;;;;;;;;;;5036082;28;20452;-64
2022/06/30 02:59:01;;;;;;;15.20;13.68;;;;;;;;;;5037285;28;20096;-65
2022/06/30 03:01:27;;;;;;;15.18;13.68;;;;;;;;;;5037380;28;20064;-65
2022/06/30 03:03:52;;;;;;;16.40;14.02;;;;;;;;;;5037159;28;20021;-66
2022/06/30 03:06:18;;;;;;;15.88;14.25;;;;;;;;;;5036964;28;20033;-66
2022/06/30 03:08:43;;;;;;;15.32;13.75;;;;;;;;;;5036936;28;20026;-65
2022/06/30 03:11:16;;;;;;;16.08;14.55;;;;;;;;;;5036933;28;20029;-65
2022/06/30 03:13:41;;;;;;;15.70;14.15;;;;;;;;;;5036879;28;20029;-65
2022/06/30 03:16:06;;;;;;;15.77;14.27;;;;;;;;;;5036826;28;20014;-66
2022/06/30 03:18:32;;;;;;;15.13;13.52;;;;;;;;;;5036866;28;20029;-66
2022/06/30 03:20:57;;;;;;;15.07;13.65;;;;;;;;;;5036483;28;20356;-65
2022/06/30 03:23:23;;;;;;;15.38;13.57;;;;;;;;;;5036790;28;20037;-66
2022/06/30 03:25:49;;;;;;;14.55;13.07;;;;;;;;;;5036642;28;20045;-65
2022/06/30 03:28:16;;;;;;;15.10;13.70;;;;;;;;;;5036966;28;20064;-73
2022/06/30 03:30:45;;;;;;;15.13;13.63;;;;;;;;;;5051720;28;20036;-74
2022/06/30 03:33:10;;;;;;;14.77;13.48;;;;;;;;;;5035547;28;20475;-74
2022/06/30 03:35:35;;;;;;;15.23;13.73;;;;;;;;;;5036483;28;20025;-73
2022/06/30 03:38:03;;;;;;;14.82;13.30;;;;;;;;;;5036270;28;20392;-72
2022/06/30 03:40:28;;;;;;;14.63;13.43;;;;;;;;;;5018406;28;20412;-73
2022/06/30 03:42:54;;;;;;;14.98;13.68;;;;;;;;;;5036388;28;20086;-73
2022/06/30 03:45:19;;;;;;;14.35;12.95;;;;;;;;;;5034862;28;20022;-72
2022/06/30 03:47:45;;;;;;;14.85;13.55;;;;;;;;;;5035825;28;20112;-73
2022/06/30 03:50:10;;;;;;;13.60;12.23;;;;;;;;;;5035607;28;20031;-72
2022/06/30 03:52:36;;;;;;;13.57;12.35;;;;;;;;;;5035623;28;20045;-73
2022/06/30 03:55:02;;;;;;;14.07;12.68;;;;;;;;;;5033669;28;20056;-74
2022/06/30 03:57:29;;;;;;;13.07;11.82;;;;;;;;;;5035732;28;20022;-73
2022/06/30 03:59:54;;;;;;;12.38;11.10;;;;;;;;;;5035505;28;20033;-73
2022/06/30 04:02:20;;;;;;;12.05;11.00;;;;;;;;;;5034128;28;20026;-72
2022/06/30 04:04:45;;;;;;;14.25;12.80;;;;;;;;;;5035237;28;20045;-73
2022/06/30 04:07:11;;;;;;;13.80;12.52;;;;;;;;;;5035255;28;20028;-73
2022/06/30 04:09:37;;;;;;;13.55;12.30;;;;;;;;;;5035351;28;20096;-73
2022/06/30 04:12:02;;;;;;;12.75;11.60;;;;;;;;;;5035215;28;20128;-73
2022/06/30 04:14:28;;;;;;;13.35;12.07;;;;;;;;;;5035225;28;20018;-73
2022/06/30 04:16:54;;;;;;;14.32;12.93;;;;;;;;;;5050526;28;20026;-73
2022/06/30 04:19:20;;;;;;;13.60;12.20;;;;;;;;;;5035074;28;20460;-73
2022/06/30 04:21:45;;;;;;;14.50;13.07;;;;;;;;;;5034899;28;20037;-72
2022/06/30 04:24:11;;;;;;;13.80;12.40;;;;;;;;;;5050210;28;20025;-73
2022/06/30 04:26:36;;;;;;;14.18;12.73;;;;;;;;;;5033605;28;20125;-73
2022/06/30 04:29:02;;;;;;;13.60;12.30;;;;;;;;;;5034845;28;20033;-73
2022/06/30 04:34:12;;;;;;;10.40;9.40;;;;;;;;;;5034126;28;20030;-72
2022/06/30 04:36:38;;;;;;;15.90;14.25;;;;;;;;;;5049986;28;20060;-72
2022/06/30 04:39:03;;;;;;;15.30;13.80;;;;;;;;;;5033921;28;20077;-73
2022/06/30 04:41:29;;;;;;;16.38;14.88;;;;;;;;;;5031541;28;20030;-72
2022/06/30 04:43:55;;;;;;;14.98;13.60;;;;;;;;;;5032985;28;20055;-72
2022/06/30 04:46:23;;;;;;;15.43;13.90;;;;;;;;;;5033112;28;20026;-72
2022/06/30 04:48:48;;;;;;;14.77;13.13;;;;;;;;;;5033098;28;20036;-73
2022/06/30 04:51:14;;;;;;;13.40;12.23;;;;;;;;;;5033298;28;20021;-73
2022/06/30 04:53:42;;;;;;;15.57;14.15;;;;;;;;;;5031739;28;20522;-73
2022/06/30 04:56:08;;;;;;;14.90;13.57;;;;;;;;;;5031544;28;20045;-73
2022/06/30 04:58:34;;;;;;;14.38;13.15;;;;;;;;;;5033532;28;20070;-73
2022/06/30 05:01:01;;;;;;;15.55;13.43;;;;;;;;;;5033630;28;20021;-73
2022/06/30 05:03:26;;;;;;;14.27;12.93;;;;;;;;;;5032220;28;20049;-74
2022/06/30 05:05:53;;;;;;;14.90;13.35;;;;;;;;;;5033620;28;20021;-73
2022/06/30 05:08:18;;;;;;;13.98;12.70;;;;;;;;;;5032638;28;20044;-71
2022/06/30 05:10:44;;;;;;;14.88;13.48;;;;;;;;;;5032481;28;20014;-71
2022/06/30 05:13:09;;;;;;;13.30;12.10;;;;;;;;;;5033111;28;20380;-72
2022/06/30 05:15:35;;;;;;;14.07;12.68;;;;;;;;;;5032916;28;20021;-73
2022/06/30 05:18:01;;;;;;;15.73;14.10;;;;;;;;;;5032222;28;20029;-72
2022/06/30 05:20:28;;;;;;;15.02;13.13;;;;;;;;;;5033609;28;20021;-72
2022/06/30 05:22:53;;;;;;;15.07;13.55;;;;;;;;;;5033936;28;20041;-64
2022/06/30 05:28:03;;;;;;;13.70;12.40;;;;;;;;;;5032498;28;20026;-64
2022/06/30 05:30:29;;;;;;;13.07;11.77;;;;;;;;;;5047974;28;20013;-65
2022/06/30 05:32:54;;;;;;;12.25;11.15;;;;;;;;;;5031944;28;20033;-64
2022/06/30 05:35:19;;;;;;;13.10;11.80;;;;;;;;;;5032968;28;20360;-65
2022/06/30 05:37:45;;;;;;;12.73;11.45;;;;;;;;;;5032515;28;20053;-65
2022/06/30 05:40:10;;;;;;;14.05;11.63;;;;;;;;;;5048417;28;20029;-65
2022/06/30 05:42:36;;;;;;;13.23;11.95;;;;;;;;;;5047797;28;20044;-65
2022/06/30 05:45:02;;;;;;;13.00;11.68;;;;;;;;;;5031859;28;20032;-65
2022/06/30 05:47:27;;;;;;;13.52;12.13;;;;;;;;;;5032350;28;20026;-65
2022/06/30 05:49:53;;;;;;;13.35;12.18;;;;;;;;;;5032261;28;20032;-65
2022/06/30 05:52:18;;;;;;;14.65;13.27;;;;;;;;;;5031708;28;20029;-65
2022/06/30 05:54:43;;;;;;;15.05;13.55;;;;;;;;;;5031838;28;20618;-64
2022/06/30 05:57:09;;;;;;;14.48;13.27;;;;;;;;;;5032099;28;20025;-63
2022/06/30 05:59:34;;;;;;;15.18;13.68;;;;;;;;;;5032587;28;20460;-64
2022/06/30 06:02:00;;;;;;;15.05;13.68;;;;;;;;;;5032662;28;20041;-65
2022/06/30 06:04:25;;;;;;;17.52;14.25;;;;;;;;;;5032527;28;20024;-65
2022/06/30 06:06:51;;;;;;;15.55;13.73;;;;;;;;;;5032588;28;20064;-65
2022/06/30 06:09:16;;;;;;;15.38;13.93;;;;;;;;;;5032556;28;20474;-63
2022/06/30 06:11:42;;;;;;;15.32;13.82;;;;;;;;;;5032355;28;20029;-65
2022/06/30 06:14:08;;;;;;;15.30;13.50;;;;;;;;;;5032561;28;20025;-65
2022/06/30 06:16:33;;;;;;;20.95;19.15;;;;;;;;;;5032552;28;20029;-65
2022/06/30 06:18:58;;;;;;;15.35;13.45;;;;;;;;;;5034085;28;20383;-66
2022/06/30 06:21:26;;;;;;;15.80;13.10;;;;;;;;;;5035179;28;20033;-65
2022/06/30 06:23:52;;;;;;;14.77;13.38;;;;;;;;;;5036449;28;20017;-66
2022/06/30 06:26:18;;;;;;;15.68;14.07;;;;;;;;;;5036433;28;20037;-65
2022/06/30 06:31:27;;;;;;;16.15;14.57;;;;;;;;;;5036320;28;20037;-65
2022/06/30 06:33:53;;;;;;;15.40;13.93;;;;;;;;;;5036277;28;20013;-65
2022/06/30 06:36:18;;;;;;;16.15;14.55;;;;;;;;;;5036324;28;20033;-73
2022/06/30 06:38:43;;;;;;;16.15;14.10;;;;;;;;;;5036128;28;20064;-64
2022/06/30 06:41:09;;;;;;;15.15;13.73;;;;;;;;;;5036150;28;20025;-65
2022/06/30 06:43:34;;;;;;;18.02;14.70;;;;;;;;;;5036247;28;20025;-65
2022/06/30 06:46:00;;;;;;;15.25;13.88;;;;;;;;;;5036151;28;20393;-64
2022/06/30 06:48:25;;;;;;;15.98;14.48;;;;;;;;;;5035906;28;20029;-64
2022/06/30 06:50:51;;;;;;;15.48;13.93;;;;;;;;;;5035860;28;20137;-65
2022/06/30 06:53:16;;;;;;;15.23;13.63;;;;;;;;;;5034938;28;20174;-63
2022/06/30 06:55:41;;;;;;;16.42;14.80;;;;;;;;;;5036708;28;20040;-65
2022/06/30 06:58:08;;;;;;;18.92;16.15;;;;;;;;;;5018873;28;20022;-63
2022/06/30 07:00:33;;;;;;;16.02;14.63;;;;;;;;;;5036480;28;20030;-64
2022/06/30 07:02:59;;;;;;;16.17;14.68;;;;;;;;;;5036357;28;20151;-64
2022/06/30 07:05:24;;;;;;;18.02;14.73;;;;;;;;;;5051974;28;20098;-65
2022/06/30 07:07:57;;;;;;;17.00;15.30;;;;;;;;;;5036567;28;20100;-65
2022/06/30 07:10:23;;;;;;;16.38;14.82;;;;;;;;;;5036755;28;20025;-64
2022/06/30 07:12:48;;;;;;;15.43;14.00;;;;;;;;;;5036760;28;20017;-63
2022/06/30 07:15:13;;;;;;;14.75;13.00;;;;;;;;;;5051742;28;20025;-65
2022/06/30 07:17:39;;;;;;;16.70;14.82;;;;;;;;;;5036423;28;20017;-64
2022/06/30 07:20:05;;;;;;;16.30;14.68;;;;;;;;;;5035851;28;20108;-65
2022/06/30 07:22:30;;;;;;;15.45;13.88;;;;;;;;;;5035520;28;20048;-64
2022/06/30 07:24:56;;;;;;;15.55;13.95;;;;;;;;;;5035416;28;20047;-64
2022/06/30 07:27:21;;;;;;;16.40;14.77;;;;;;;;;;5035438;28;20371;-65
2022/06/30 07:29:47;;;;;;;16.42;14.77;;;;;;;;;;5034261;28;20075;-65
2022/06/30 07:32:13;;;;;;;17.05;14.88;;;;;;;;;;5035244;28;20118;-65
2022/06/30 07:34:39;;;;;;;15.75;14.27;;;;;;;;;;5035401;28;20053;-65
2022/06/30 07:37:05;;;;;;;17.38;15.65;;;;;;;;;;5033733;28;20423;-65
2022/06/30 07:39:31;;;;;;;17.17;14.75;;;;;;;;;;5035094;28;20536;-65
2022/06/30 07:41:56;;;;;;;14.57;13.05;;;;;;;;;;5035138;28;20117;-65
2022/06/30 07:44:22;;;;;;;13.80;12.55;;;;;;;;;;5033890;28;20067;-65
2022/06/30 07:46:47;;;;;;;15.75;14.10;;;;;;;;;;5033818;28;20108;-65
2022/06/30 07:49:13;;;;;;;16.88;15.07;;;;;;;;;;5050316;28;20502;-66
2022/06/30 07:51:38;;;;;;;15.98;14.25;;;;;;;;;;5034815;28;20406;-64
2022/06/30 07:54:04;;;;;;;15.05;13.65;;;;;;;;;;5033696;28;20033;-65
2022/06/30 07:56:31;;;;;;;12.85;11.70;;;;;;;;;;5035272;28;20018;-65
2022/06/30 07:58:57;;;;;;;13.05;11.95;;;;;;;;;;5033881;28;20035;-66
2022/06/30 08:01:23;;;;;;;14.63;13.20;;;;;;;;;;5033026;28;20120;-66
2022/06/30 08:03:50;;;;;;;16.77;12.40;;;;;;;;;;5034908;28;20029;-66
2022/06/30 08:06:15;;;;;;;15.13;13.48;;;;;;;;;;5035248;28;20109;-65
2022/06/30 08:08:41;;;;;;;15.48;13.73;;;;;;;;;;5035323;28;20476;-65
2022/06/30 08:11:07;;;;;;;15.00;13.52;;;;;;;;;;5035457;28;20018;-65
2022/06/30 08:13:33;;;;;;;15.88;14.05;;;;;;;;;;5034461;28;20042;-65
2022/06/30 08:15:58;;;;;;;14.38;13.13;;;;;;;;;;5033230;28;20440;-65
2022/06/30 08:18:23;;;;;;;16.80;15.02;;;;;;;;;;5035115;28;20030;-65
2022/06/30 08:20:49;;;;;;;16.80;15.07;;;;;;;;;;5034281;28;20017;-65
2022/06/30 08:23:14;;;;;;;16.10;14.30;;;;;;;;;;5035235;28;20459;-65
2022/06/30 08:25:40;;;;;;;15.80;14.20;;;;;;;;;;5035185;28;20356;-65
2022/06/30 08:28:05;;;;;;;18.77;15.02;;;;;;;;;;5034738;28;20038;-65
2022/06/30 08:30:31;;;;;;;15.70;13.95;;;;;;;;;;5035075;28;20032;-66
2022/06/30 08:32:56;;;;;;;15.65;13.77;;;;;;;;;;5050933;28;20053;-64
2022/06/30 08:35:22;;;;;;;15.88;14.45;;;;;;;;;;5048925;28;20025;-65
2022/06/30 08:37:47;;;;;;;16.05;14.55;;;;;;;;;;5031673;28;20041;-65
2022/06/30 08:42:58;;;;;;;16.05;13.77;;;;;;;;;;5032758;28;20104;-65
2022/06/30 08:45:24;;;;;;;15.48;13.93;;;;;;;;;;5032935;28;20021;-65
2022/06/30 08:47:50;;;;;;;15.85;14.27;;;;;;;;;;5032887;28;20037;-63
2022/06/30 08:50:16;;;;;;;15.23;13.63;;;;;;;;;;5032808;28;20032;-63
2022/06/30 08:52:51;;;;;;;15.50;13.88;;;;;;;;;;5034890;28;20104;-65
2022/06/30 08:55:17;;;;;;;14.90;13.43;;;;;;;;;;5033893;28;20025;-65
2022/06/30 09:00:42;;;;;;;16.83;15.02;;;;;;;;;;5013964;28;20117;-65
2022/06/30 09:03:08;;;;;;;16.10;14.27;;;;;;;;;;5014916;28;20030;-64
2022/06/30 09:05:33;;;;;;;15.88;14.45;;;;;;;;;;5015146;28;20101;-65
2022/06/30 09:07:59;;;;;;;14.75;13.25;;;;;;;;;;5015360;28;20415;-65
2022/06/30 09:10:25;;;;;;;15.07;13.68;;;;;;;;;;5014742;28;20077;-65
2022/06/30 09:13:00;;;;;;;15.73;14.18;;;;;;;;;;5014751;28;20022;-65
2022/06/30 09:15:28;;;;;;;15.02;13.63;;;;;;;;;;5014740;28;20065;-65
2022/06/30 09:17:54;;;;;;;14.95;13.43;;;;;;;;;;5014958;28;20029;-64
2022/06/30 09:20:31;;;;;;;14.75;13.27;;;;;;;;;;5014600;28;20464;-65
2022/06/30 09:22:56;;;;;;;15.05;13.57;;;;;;;;;;5014865;28;20030;-65
2022/06/30 09:25:30;;;;;;;14.52;13.13;;;;;;;;;;5014572;28;20093;-64
2022/06/30 09:27:55;;;;;;;12.93;11.65;;;;;;;;;;5014498;28;20050;-65
2022/06/30 09:30:23;;;;;;;13.38;12.18;;;;;;;;;;5014368;28;20045;-65
2022/06/30 09:32:48;;;;;;;14.38;13.05;;;;;;;;;;5029539;28;20447;-65
2022/06/30 09:35:14;;;;;;;16.20;12.77;;;;;;;;;;5029555;28;20022;-65
2022/06/30 09:37:40;;;;;;;15.68;12.68;;;;;;;;;;5014372;28;20030;-65
2022/06/30 09:40:06;;;;;;;13.35;12.07;;;;;;;;;;5013135;28;20449;-65
2022/06/30 09:42:38;;;;;;;14.18;12.77;;;;;;;;;;5029813;28;20469;-64
2022/06/30 09:45:04;;;;;;;15.02;12.68;;;;;;;;;;5029769;28;20036;-65
2022/06/30 09:47:30;;;;;;;13.68;12.27;;;;;;;;;;5014413;28;20040;-64
2022/06/30 09:49:59;;;;;;;14.18;12.65;;;;;;;;;;5029337;28;20033;-63
2022/06/30 09:52:26;;;;;;;15.53;12.40;;;;;;;;;;5014000;28;20042;-65
2022/06/30 09:54:53;;;;;;;13.13;11.75;;;;;;;;;;5013949;28;20435;-65
2022/06/30 09:57:19;;;;;;;12.20;10.95;;;;;;;;;;5014076;28;20383;-65
2022/06/30 09:59:45;;;;;;;12.30;11.15;;;;;;;;;;5013860;28;20030;-65
2022/06/30 10:02:11;;;;;;;12.60;11.30;;;;;;;;;;5029188;28;20439;-65
2022/06/30 10:04:53;;;;;;;12.13;10.90;;;;;;;;;;5013966;28;20034;-65
2022/06/30 10:07:18;;;;;;;11.13;10.15;;;;;;;;;;5029505;28;20039;-65
2022/06/30 10:09:44;;;;;;;12.55;11.25;;;;;;;;;;5029114;28;20036;-65
2022/06/30 10:12:10;;;;;;;12.27;10.98;;;;;;;;;;5013823;28;20079;-65
2022/06/30 10:14:37;;;;;;;14.15;11.88;;;;;;;;;;5013943;28;20491;-65
2022/06/30 10:17:05;;;;;;;11.73;10.63;;;;;;;;;;5014146;28;20041;-65
2022/06/30 10:19:30;;;;;;;11.93;10.88;;;;;;;;;;5014118;28;20022;-65
2022/06/30 10:21:56;;;;;;;11.02;10.13;;;;;;;;;;5014089;28;20033;-65
2022/06/30 10:24:22;;;;;;;11.63;10.55;;;;;;;;;;5028978;28;20017;-64
2022/06/30 10:29:32;;;;;;;11.75;10.65;;;;;;;;;;5014010;28;20030;-65
2022/06/30 10:32:10;;;;;;;12.68;11.43;;;;;;;;;;5029190;28;20022;-65
2022/06/30 10:34:38;;;;;;;11.98;10.95;;;;;;;;;;5013703;28;20030;-65
2022/06/30 10:37:19;;;;;;;11.63;10.73;;;;;;;;;;5013687;28;20018;-65
2022/06/30 10:39:48;;;;;;;10.85;9.77;;;;;;;;;;5013920;28;20048;-66
2022/06/30 10:42:32;;;;;;;10.25;9.35;;;;;;;;;;5013871;28;20033;-65
2022/06/30 10:44:57;;;;;;;9.68;8.77;;;;;;;;;;5014188;28;20030;-64
2022/06/30 10:47:22;;;;;;;11.48;9.65;;;;;;;;;;5013590;28;20483;-65
2022/06/30 10:49:54;;;;;;;10.23;9.35;;;;;;;;;;5013820;28;20033;-65
2022/06/30 10:52:21;;;;;;;10.10;9.27;;;;;;;;;;5040112;23;20069;-71
2022/06/30 10:54:47;;;;;;;10.43;9.48;;;;;;;;;;5033564;28;20026;-71
2022/06/30 10:57:13;;;;;;;9.98;9.23;;;;;;;;;;5032059;28;20467;-71
2022/06/30 10:59:42;;;;;;;10.80;9.48;;;;;;;;;;5033741;28;20021;-71
2022/06/30 11:02:08;;;;;;;10.38;9.40;;;;;;;;;;5033782;28;20067;-70
2022/06/30 11:04:34;;;;;;;9.85;9.02;;;;;;;;;;5034205;28;20025;-70
2022/06/30 11:07:01;;;;;;;11.80;10.50;;;;;;;;;;5035568;28;20507;-71
2022/06/30 11:09:41;;;;;;;10.43;9.43;;;;;;;;;;5037095;28;20033;-71
2022/06/30 11:12:07;;;;;;;9.88;8.52;;;;;;;;;;5036983;28;20069;-71
2022/06/30 11:14:32;;;;;;;9.23;8.20;;;;;;;;;;5036991;28;20053;-70
2022/06/30 11:16:59;;;;;;;8.93;8.20;;;;;;;;;;5037210;28;20041;-71
2022/06/30 11:19:25;;;;;;;12.73;7.90;;;;;;;;;;5036631;28;20025;-70
2022/06/30 11:21:52;;;;;;;10.55;7.47;;;;;;;;;;5036835;28;20120;-70
2022/06/30 11:24:20;;;;;;;8.43;7.55;;;;;;;;;;5035304;28;20101;-71
2022/06/30 11:29:31;;;;;;;7.97;7.35;;;;;;;;;;5036706;28;20495;-71
2022/06/30 11:32:01;;;;;;;6.95;6.35;;;;;;;;;;5035444;28;20049;-71
2022/06/30 11:34:28;;;;;;;9.60;5.55;;;;;;;;;;5036345;28;20075;-71
2022/06/30 11:36:54;;;;;;;5.53;5.10;;;;;;;;;;5036829;28;20079;-71
2022/06/30 11:39:20;;;;;;;5.18;4.72;;;;;;;;;;5036263;28;20033;-71
2022/06/30 11:41:54;;;;;;;5.28;4.78;;;;;;;;;;5036494;28;20109;-71
2022/06/30 11:44:21;;;;;;;4.85;4.45;;;;;;;;;;5036678;28;20517;-70
2022/06/30 11:46:54;;;;;;;5.07;4.55;;;;;;;;;;5034870;28;20025;-71
2022/06/30 11:49:20;;;;;;;5.55;5.15;;;;;;;;;;5036096;28;20087;-71
2022/06/30 11:51:47;;;;;;;4.68;4.38;;;;;;;;;;5036127;28;20060;-70
2022/06/30 11:54:13;;;;;;;4.53;4.22;;;;;;;;;;5036271;28;20026;-71
2022/06/30 11:57:05;;;;;;;5.05;4.72;;;;;;;;;;5034698;28;20116;-72
2022/06/30 11:59:31;;;;;;;6.82;4.90;;;;;;;;;;5033233;28;20076;-70
2022/06/30 12:02:06;;;;;;;6.20;4.82;;;;;;;;;;5036417;28;20056;-70
2022/06/30 12:04:32;;;;;;;5.95;4.70;;;;;;;;;;5034824;28;20533;-70
2022/06/30 12:06:58;;;;;;;5.70;4.78;;;;;;;;;;5035818;28;20028;-70
2022/06/30 12:09:27;;;;;;;5.80;4.18;;;;;;;;;;5036023;28;20404;-70
2022/06/30 12:11:53;;;;;;;5.63;4.60;;;;;;;;;;5050951;28;20037;-70
2022/06/30 12:14:18;;;;;;;4.30;3.88;;;;;;;;;;5035891;28;20029;-70
2022/06/30 12:16:44;;;;;;;4.10;3.65;;;;;;;;;;5034999;28;20452;-70
2022/06/30 12:19:13;;;;;;;4.10;3.83;;;;;;;;;;5035819;28;20037;-70
2022/06/30 12:21:38;;;;;;;7.63;4.43;;;;;;;;;;5035508;28;20448;-70
2022/06/30 12:24:05;;;;;;;4.82;4.40;;;;;;;;;;5034169;28;20026;-71
2022/06/30 12:26:30;;;;;;;5.57;4.60;;;;;;;;;;5035995;28;20028;-71
2022/06/30 12:28:56;;;;;;;4.47;4.05;;;;;;;;;;5035336;28;20464;-70
2022/06/30 12:31:31;;;;;;;4.60;4.25;;;;;;;;;;5035253;28;20022;-71
2022/06/30 12:33:57;;;;;;;7.95;4.82;;;;;;;;;;5035540;28;20045;-71
2022/06/30 12:36:23;;;;;;;5.65;5.25;;;;;;;;;;5035206;28;20018;-71
2022/06/30 12:38:48;;;;;;;6.20;5.68;;;;;;;;;;5035705;28;20029;-71
2022/06/30 12:41:14;;;;;;;7.80;5.60;;;;;;;;;;5035385;28;20045;-71
2022/06/30 12:43:44;;;;;;;6.63;6.20;;;;;;;;;;5033846;28;20025;-71
2022/06/30 12:46:10;;;;;;;6.90;5.90;;;;;;;;;;5035346;28;20383;-71
2022/06/30 12:48:51;;;;;;;8.57;7.22;;;;;;;;;;5035274;28;20032;-71
2022/06/30 12:51:17;;;;;;;8.27;7.47;;;;;;;;;;5034713;28;21036;-71
2022/06/30 12:53:45;;;;;;;8.00;6.75;;;;;;;;;;5050802;28;20025;-70
2022/06/30 12:56:17;;;;;;;9.85;6.72;;;;;;;;;;5035064;28;20075;-71
2022/06/30 12:59:01;;;;;;;18.23;7.07;;;;;;;;;;5035033;28;20040;-71
2022/06/30 13:01:29;;;;;;;13.27;7.00;;;;;;;;;;5034986;28;20033;-71
2022/06/30 13:03:57;;;;;;;9.27;6.63;;;;;;;;;;5034929;28;20104;-71
2022/06/30 13:06:24;;;;;;;10.05;6.00;;;;;;;;;;5034611;28;20034;-71
2022/06/30 13:08:49;;;;;;;7.03;6.32;;;;;;;;;;5034870;28;20510;-71
2022/06/30 13:11:16;;;;;;;6.70;6.10;;;;;;;;;;5034467;28;20033;-71
2022/06/30 13:13:43;;;;;;;6.93;6.30;;;;;;;;;;5034476;28;20495;-70
2022/06/30 13:16:09;;;;;;;6.22;5.57;;;;;;;;;;5034458;28;20029;-70
2022/06/30 13:18:34;;;;;;;7.03;6.35;;;;;;;;;;5050376;28;20088;-71
2022/06/30 13:21:00;;;;;;;7.07;6.45;;;;;;;;;;5034660;28;20087;-71
2022/06/30 13:23:25;;;;;;;6.88;6.28;;;;;;;;;;5034600;28;20017;-71
2022/06/30 13:25:50;;;;;;;7.75;5.80;;;;;;;;;;5033094;28;20037;-71
2022/06/30 13:28:16;;;;;;;8.38;5.82;;;;;;;;;;5033401;28;20530;-71
2022/06/30 13:30:41;;;;;;;5.75;5.35;;;;;;;;;;5034689;28;20438;-71
2022/06/30 13:33:07;;;;;;;7.82;5.80;;;;;;;;;;5034193;28;20018;-70
2022/06/30 13:35:32;;;;;;;6.78;5.57;;;;;;;;;;5034108;28;20130;-71
2022/06/30 13:37:57;;;;;;;5.70;5.20;;;;;;;;;;5034632;28;20022;-70
2022/06/30 13:40:23;;;;;;;7.07;5.72;;;;;;;;;;5034308;28;20032;-70
2022/06/30 13:42:48;;;;;;;6.05;5.57;;;;;;;;;;5034041;28;20021;-71
2022/06/30 13:45:14;;;;;;;8.68;5.20;;;;;;;;;;5034281;28;20059;-70
2022/06/30 13:47:39;;;;;;;5.43;5.05;;;;;;;;;;5033964;28;20049;-70
2022/06/30 13:50:05;;;;;;;6.03;5.40;;;;;;;;;;5033877;28;20032;-70
2022/06/30 13:52:34;;;;;;;4.82;4.18;;;;;;;;;;5033779;28;20047;-71
2022/06/30 13:54:59;;;;;;;5.55;5.20;;;;;;;;;;5034172;28;20029;-71
2022/06/30 13:57:25;;;;;;;5.47;5.07;;;;;;;;;;5034145;28;20094;-71
2022/06/30 13:59:50;;;;;;;5.32;4.93;;;;;;;;;;5033801;28;20041;-71
2022/06/30 14:02:16;;;;;;;6.50;5.40;;;;;;;;;;5033756;28;20018;-71
2022/06/30 14:04:42;;;;;;;5.72;4.85;;;;;;;;;;5034000;28;20032;-70
2022/06/30 14:07:07;;;;;;;5.47;4.80;;;;;;;;;;5032573;28;20021;-71
2022/06/30 14:09:33;;;;;;;5.50;4.70;;;;;;;;;;5033683;28;20029;-71
2022/06/30 14:12:00;;;;;;;8.75;4.97;;;;;;;;;;5033612;28;20029;-71
2022/06/30 14:14:27;;;;;;;5.43;4.95;;;;;;;;;;5033658;28;20029;-70
2022/06/30 14:16:54;;;;;;;5.32;4.90;;;;;;;;;;5033906;28;20022;-70
2022/06/30 14:19:20;;;;;;;6.78;5.75;;;;;;;;;;5032403;28;20022;-71
2022/06/30 14:21:45;;;;;;;5.80;5.18;;;;;;;;;;5033885;28;20367;-71
2022/06/30 14:24:11;;;;;;;6.07;5.57;;;;;;;;;;5032308;28;20376;-71
2022/06/30 14:26:36;;;;;;;6.70;5.18;;;;;;;;;;5034174;28;20017;-72
2022/06/30 14:29:02;;;;;;;8.32;5.57;;;;;;;;;;5033484;28;20443;-71
2022/06/30 14:31:27;;;;;;;6.55;5.70;;;;;;;;;;5033701;28;20018;-70
2022/06/30 14:33:53;;;;;;;5.90;5.43;;;;;;;;;;5049193;28;20033;-70
2022/06/30 14:36:18;;;;;;;5.88;5.47;;;;;;;;;;5033710;28;20025;-71
2022/06/30 14:38:44;;;;;;;7.40;5.40;;;;;;;;;;5033346;28;20476;-65
2022/06/30 14:41:10;;;;;;;8.70;6.38;;;;;;;;;;5037431;28;20029;-64